Chautauqua County-Jamestown Airport
KJHW : now visible

Airfield :











YOU CAN JOIN US ON...

 
LOGIN :

Register | Disclaimer

   EN    FR    IT 

 









Legend :    VFR   Marginal VFR   IFR   Intensive IFR   Very Intensive IFR
Visi :
Ceiling :
>= 8 km
>= 3000ft
5 to 8 km
1000 to 3000 ft
1500m to 5 km
500 to 1000 ft
800 to 1500m
200 to 500 ft
< 800m
< 200 ft
Symbols :   Thunderstorms  Fog  Heavy snow  Heavy precipitations  Wind > 20 kt






- Airport Elevation : 1723 ft


KJHW - Chautauqua County-Jamestown

CURRENT METAR :
  • 291933Z AUTO 23009KT 2 1/2SM UP BR OVC004 03/03 A2998 RMK AO2 P0000

EXPIRED METARs :
  • 291915Z AUTO 23010KT 1 3/4SM UP BR OVC004 03/03 A2997 RMK AO2 P0000
  • 291856Z AUTO 22011KT 4SM UP BR OVC004 03/02 A2997 RMK AO2 RAE22UPB22 SLP168 P0000 T00280022
  • 291756Z AUTO 22012KT 4SM -RA BR OVC004 03/02 A2998 RMK AO2 SLP173 P0002 60008 T00280022 10044 20011 58015
  • 291731Z AUTO 22009KT 5SM -RA BR OVC004 02/02 A2999 RMK AO2 CIG 003V008 P0002 FZRANO
  • 291656Z AUTO 21008KT 7SM -RA OVC006 02/02 A3001 RMK AO2 SLP182 P0001 T00170017 FZRANO

TAF KJHW
Valid from the 29 at 18:00 until the 30 at 18:00 UTC


291722Z 2918/3018 22010G17KT 6SM -RA BR OVC007
FM292300 28009KT 5SM -RASN BR OVC007
FM300100 30007KT 6SM -SHSN OVC005
FM300400 34006KT P6SM OVC007
FM301500 28008KT P6SM OVC007
KZOB FIR / North America



MET'MAP, your aeronautical weather chart ! - Copyright ORBIFLY December 2007 - Disclaimer

ORBIFLY MET'MAP TEAM :

Programming & Development : Alexandra Zaïnal
Original concept : Baudouin d'Aumeries
Technical & hardware support : Manuel Goepfert
Assistance : Marc-Olivier Méhu




SOURCES & CREDITS :

   NOAA       Earth
Advisory